Zim Vancouver — A8LK5 — position and weather

sailwx.info

Track history (hours):
 
Tides and Currents Weather Stations Pressure Air Temp Water Temp Dewpoint Dewpoint Depression Visibility Wind Speed Wind Dir Waves Ship Positions

Zim Vancouver

Last reported at 2015-May-24 22:33 UTC. Time now 2015-May-25 01:29 UTC.
Position N 01°15' E 103°58'.

Length 260 m; draft 11.2 m.

Type: Ship. MMSI: 636013214.

Date/timePositionNaut miles runAvg speedWind from/ knotsBaromVisibWave heightAir tempDewpointWater temp
2015-May-24 22:33N 01°15' E 103°58'  
2015-May-21 11:33N 22°07' E 114°19'1513.5
2015-May-21 10:27N 22°16' E 114°06'1211.3
2015-May-21 09:21N 22°22' E 113°55'5 0.5
2015-May-20 23:09N 22°27' E 113°52'15 9.1
2015-May-20 21:33N 22°19' E 114°05'11 9.2
2015-May-20 20:23N 22°10' E 114°12'8 9.1
2015-May-20 19:33N 22°09' E 114°20'1312.9
2015-May-20 18:33N 22°10' E 114°34'20714.8
2015-May-20 04:33N 23°37' E 117°58'1615.8
2015-May-20 03:33N 23°47' E 118°12'1917.4
2015-May-20 02:26N 24°00' E 118°28'44916.6
2015-May-18 23:23N 30°29' E 122°39'1517.9
2015-May-18 22:33N 30°32' E 122°22'1515.1
2015-May-18 21:33N 30°36' E 122°05'1 0.1
2015-May-18 14:21N 30°37' E 122°04'0 0.0
2015-May-18 13:27N 30°37' E 122°04'0 0.0
2015-May-18 12:27N 30°37' E 122°04'0 0.0
2015-May-18 08:27N 30°37' E 122°04'0 0.0
2015-May-18 07:33N 30°37' E 122°04'0 0.0
2015-May-18 06:33N 30°37' E 122°04'0 0.0
2015-May-18 05:30N 30°37' E 122°04'0 0.4
2015-May-18 04:29N 30°37' E 122°04'5 5.1
2015-May-18 03:32N 30°34' E 122°09'51 6.3
2015-May-17 19:32N 29°55' E 122°47'1313.5
2015-May-17 18:33N 29°47' E 122°34'1413.7
2015-May-17 17:33N 29°45' E 122°19'1111.1
2015-May-17 16:33N 29°53' E 122°11'1111.3
2015-May-17 15:33N 29°58' E 121°59'8 3.4
2015-May-17 13:17N 29°57' E 121°51'0 0.0
2015-May-17 12:23N 29°57' E 121°51'0 0.0
2015-May-17 11:23N 29°57' E 121°51'0 0.0
2015-May-17 10:29N 29°57' E 121°51'0 0.0
2015-May-17 09:17N 29°57' E 121°51'0 0.0
2015-May-17 07:29N 29°57' E 121°51'0 0.0
2015-May-17 06:29N 29°57' E 121°51'0 0.0
2015-May-17 05:29N 29°57' E 121°51'2 1.8
2015-May-17 04:33N 29°57' E 121°52'9 9.0
2015-May-17 03:33N 29°56' E 122°03'1212.3
2015-May-17 02:33N 29°49' E 122°14'9 8.5
2015-May-17 01:33N 29°45' E 122°23'6 6.2
2015-May-17 00:33N 29°45' E 122°30'6 5.6
2015-May-16 23:33N 29°45' E 122°37'1715.5
2015-May-16 22:30N 29°55' E 122°52'1617.0
2015-May-16 21:32N 30°06' E 123°06'1717.5
2015-May-16 20:33N 30°16' E 123°22'1817.9
2015-May-16 19:32N 30°28' E 123°38'1818.0
2015-May-16 18:33N 30°40' E 123°54'1818.0
2015-May-16 17:33N 30°52' E 124°08'1818.3
2015-May-16 16:33N 31°05' E 124°24'2017.9
2015-May-16 15:25N 31°19' E 124°42'1618.2
2015-May-16 14:33N 31°29' E 124°55'1817.9
2015-May-16 13:33N 31°41' E 125°11'1818.0
2015-May-16 12:33N 31°53' E 125°26'1818.2
2015-May-16 11:34N 32°06' E 125°42'  
Track history (hours):
 
Tides and Currents Weather Stations Pressure Air Temp Water Temp Dewpoint Dewpoint Depression Visibility Wind Speed Wind Dir Waves Ship Positions

Zim Vancouver

Last reported at 2015-May-24 22:33 UTC. Time now 2015-May-25 01:29 UTC.
Position N 01°15' E 103°58'.

Length 260 m; draft 11.2 m.

Type: Ship. MMSI: 636013214.

Date/timePositionNaut miles runAvg speedWind from/ knotsBaromVisibWave heightAir tempDewpointWater temp
2015-May-24 22:33N 01°15' E 103°58'  
2015-May-21 11:33N 22°07' E 114°19'1513.5
2015-May-21 10:27N 22°16' E 114°06'1211.3
2015-May-21 09:21N 22°22' E 113°55'5 0.5
2015-May-20 23:09N 22°27' E 113°52'15 9.1
2015-May-20 21:33N 22°19' E 114°05'11 9.2
2015-May-20 20:23N 22°10' E 114°12'8 9.1
2015-May-20 19:33N 22°09' E 114°20'1312.9
2015-May-20 18:33N 22°10' E 114°34'20714.8
2015-May-20 04:33N 23°37' E 117°58'1615.8
2015-May-20 03:33N 23°47' E 118°12'1917.4
2015-May-20 02:26N 24°00' E 118°28'44916.6
2015-May-18 23:23N 30°29' E 122°39'1517.9
2015-May-18 22:33N 30°32' E 122°22'1515.1
2015-May-18 21:33N 30°36' E 122°05'1 0.1
2015-May-18 14:21N 30°37' E 122°04'0 0.0
2015-May-18 13:27N 30°37' E 122°04'0 0.0
2015-May-18 12:27N 30°37' E 122°04'0 0.0
2015-May-18 08:27N 30°37' E 122°04'0 0.0
2015-May-18 07:33N 30°37' E 122°04'0 0.0
2015-May-18 06:33N 30°37' E 122°04'0 0.0
2015-May-18 05:30N 30°37' E 122°04'0 0.4
2015-May-18 04:29N 30°37' E 122°04'5 5.1
2015-May-18 03:32N 30°34' E 122°09'51 6.3
2015-May-17 19:32N 29°55' E 122°47'1313.5
2015-May-17 18:33N 29°47' E 122°34'1413.7
2015-May-17 17:33N 29°45' E 122°19'1111.1
2015-May-17 16:33N 29°53' E 122°11'1111.3
2015-May-17 15:33N 29°58' E 121°59'8 3.4
2015-May-17 13:17N 29°57' E 121°51'0 0.0
2015-May-17 12:23N 29°57' E 121°51'0 0.0
2015-May-17 11:23N 29°57' E 121°51'0 0.0
2015-May-17 10:29N 29°57' E 121°51'0 0.0
2015-May-17 09:17N 29°57' E 121°51'0 0.0
2015-May-17 07:29N 29°57' E 121°51'0 0.0
2015-May-17 06:29N 29°57' E 121°51'0 0.0
2015-May-17 05:29N 29°57' E 121°51'2 1.8
2015-May-17 04:33N 29°57' E 121°52'9 9.0
2015-May-17 03:33N 29°56' E 122°03'1212.3
2015-May-17 02:33N 29°49' E 122°14'9 8.5
2015-May-17 01:33N 29°45' E 122°23'6 6.2
2015-May-17 00:33N 29°45' E 122°30'6 5.6
2015-May-16 23:33N 29°45' E 122°37'1715.5
2015-May-16 22:30N 29°55' E 122°52'1617.0
2015-May-16 21:32N 30°06' E 123°06'1717.5
2015-May-16 20:33N 30°16' E 123°22'1817.9
2015-May-16 19:32N 30°28' E 123°38'1818.0
2015-May-16 18:33N 30°40' E 123°54'1818.0
2015-May-16 17:33N 30°52' E 124°08'1818.3
2015-May-16 16:33N 31°05' E 124°24'2017.9
2015-May-16 15:25N 31°19' E 124°42'1618.2
2015-May-16 14:33N 31°29' E 124°55'1817.9
2015-May-16 13:33N 31°41' E 125°11'1818.0
2015-May-16 12:33N 31°53' E 125°26'1818.2
2015-May-16 11:34N 32°06' E 125°42'  

Dump ship's entire track history